createdAt,value
2023-06-26T00:01:43.845Z,14.10
2023-06-26T00:04:15.731Z,14.00
2023-06-26T00:06:45.088Z,14.50
2023-06-26T00:09:14.249Z,15.52
2023-06-26T00:11:42.957Z,14.20
2023-06-26T00:14:13.129Z,12.57
2023-06-26T00:16:43.712Z,13.10
2023-06-26T00:19:12.476Z,13.52
2023-06-26T00:21:41.119Z,12.90
2023-06-26T00:27:10.004Z,12.77
2023-06-26T00:29:41.070Z,11.43
2023-06-26T00:32:10.333Z,12.27
2023-06-26T00:34:39.020Z,11.48
2023-06-26T00:37:07.776Z,12.95
2023-06-26T00:39:36.612Z,12.37
2023-06-26T00:42:05.637Z,12.35
2023-06-26T00:44:35.992Z,12.43
2023-06-26T00:47:06.965Z,12.15
2023-06-26T00:49:35.914Z,13.45
2023-06-26T00:52:05.780Z,13.33
2023-06-26T00:54:35.110Z,12.73
2023-06-26T00:57:06.597Z,14.32
2023-06-26T00:59:37.458Z,11.45
2023-06-26T01:02:08.656Z,10.98
2023-06-26T01:04:38.916Z,13.17
2023-06-26T01:07:09.655Z,13.13
2023-06-26T01:09:38.572Z,11.52
2023-06-26T01:12:07.672Z,15.35
2023-06-26T01:14:37.975Z,13.45
2023-06-26T01:17:13.030Z,12.27
2023-06-26T01:19:43.187Z,11.43
2023-06-26T01:22:22.634Z,12.30
2023-06-26T01:25:05.826Z,11.43
2023-06-26T01:27:43.639Z,12.35
2023-06-26T01:30:19.624Z,12.73
2023-06-26T01:32:50.093Z,12.18
2023-06-26T01:35:19.468Z,11.15
2023-06-26T01:37:48.232Z,10.85
2023-06-26T01:40:17.066Z,11.18
2023-06-26T01:42:47.096Z,10.53
2023-06-26T01:45:29.455Z,10.77
2023-06-26T01:48:03.058Z,9.88
2023-06-26T01:50:37.432Z,9.95
2023-06-26T01:53:19.162Z,12.50
2023-06-26T01:55:57.972Z,10.43
2023-06-26T01:58:30.472Z,9.00
2023-06-26T02:00:59.464Z,11.55
2023-06-26T02:03:31.755Z,14.32
2023-06-26T02:06:04.198Z,12.98
2023-06-26T02:08:34.212Z,9.90
2023-06-26T02:11:03.094Z,10.30
2023-06-26T02:13:33.360Z,10.32
2023-06-26T02:16:02.126Z,9.90
2023-06-26T02:18:31.436Z,10.20
2023-06-26T02:21:01.259Z,10.53
2023-06-26T02:23:29.994Z,11.57
2023-06-26T02:25:59.734Z,12.15
2023-06-26T02:28:28.455Z,12.93
2023-06-26T02:30:58.571Z,10.73
2023-06-26T02:33:27.460Z,14.03
2023-06-26T02:36:03.090Z,12.10
2023-06-26T02:38:31.752Z,11.90
2023-06-26T02:41:00.401Z,11.07
2023-06-26T02:43:29.124Z,9.80
2023-06-26T02:45:59.867Z,9.63
2023-06-26T02:48:28.659Z,8.95
2023-06-26T02:50:57.447Z,10.38
2023-06-26T02:53:30.798Z,11.80
2023-06-26T02:55:59.743Z,9.50
2023-06-26T02:58:28.593Z,12.60
2023-06-26T03:00:57.685Z,11.35
2023-06-26T03:03:27.797Z,12.77
2023-06-26T03:05:58.195Z,11.25
2023-06-26T03:08:28.237Z,10.15
2023-06-26T03:10:59.239Z,11.10
2023-06-26T03:13:27.930Z,11.00
2023-06-26T03:15:56.670Z,10.95
2023-06-26T03:18:25.598Z,10.00
2023-06-26T03:20:56.315Z,9.20
2023-06-26T03:23:26.347Z,11.50
2023-06-26T03:25:56.148Z,9.40
2023-06-26T03:28:32.317Z,10.30
2023-06-26T03:31:01.553Z,9.82
2023-06-26T03:33:30.675Z,8.50
2023-06-26T03:36:01.334Z,10.37
2023-06-26T03:38:30.106Z,9.52
2023-06-26T03:41:01.188Z,11.00
2023-06-26T03:43:29.966Z,10.63
2023-06-26T03:46:14.033Z,9.02
2023-06-26T03:48:43.014Z,10.70
2023-06-26T03:51:13.095Z,13.45
2023-06-26T03:53:41.833Z,10.73
2023-06-26T03:56:10.556Z,10.73
2023-06-26T03:58:39.491Z,9.70
2023-06-26T04:01:08.280Z,10.33
2023-06-26T04:03:46.118Z,9.98
2023-06-26T04:06:16.487Z,10.55
2023-06-26T04:08:45.204Z,11.55
2023-06-26T04:11:14.059Z,9.75
2023-06-26T04:13:42.760Z,11.40
2023-06-26T04:16:12.761Z,11.10
2023-06-26T04:18:41.562Z,9.13
2023-06-26T04:21:12.931Z,12.00
2023-06-26T04:23:43.702Z,10.68
2023-06-26T04:26:14.553Z,12.43
2023-06-26T04:28:44.295Z,10.82
2023-06-26T04:31:13.014Z,10.88
2023-06-26T04:33:43.352Z,10.68
2023-06-26T04:36:13.178Z,9.77
2023-06-26T04:38:43.417Z,10.70
2023-06-26T04:41:12.112Z,9.98
2023-06-26T04:43:41.051Z,10.05
2023-06-26T04:46:11.371Z,11.27
2023-06-26T04:48:40.469Z,10.43
2023-06-26T04:51:09.175Z,12.27
2023-06-26T04:53:37.866Z,10.73
2023-06-26T04:56:08.192Z,11.50
2023-06-26T04:58:36.857Z,8.98
2023-06-26T05:01:08.069Z,9.40
2023-06-26T05:03:38.131Z,7.50
2023-06-26T05:06:09.690Z,9.10
2023-06-26T05:08:38.743Z,7.60
2023-06-26T05:11:08.987Z,9.05
2023-06-26T05:13:37.739Z,8.98
2023-06-26T05:16:06.830Z,7.27
2023-06-26T05:18:35.564Z,7.03
2023-06-26T05:21:05.701Z,6.70
2023-06-26T05:23:36.267Z,6.35
2023-06-26T05:26:06.094Z,8.50
2023-06-26T05:28:37.512Z,7.10
2023-06-26T05:31:07.419Z,6.63
2023-06-26T05:33:39.320Z,8.90
2023-06-26T05:36:13.535Z,7.40
2023-06-26T05:38:43.017Z,7.40
2023-06-26T05:41:12.575Z,7.10
2023-06-26T05:43:42.771Z,7.85
2023-06-26T05:46:11.517Z,11.27
2023-06-26T05:48:40.639Z,7.10
2023-06-26T05:51:10.927Z,6.65
2023-06-26T05:53:40.430Z,7.23
2023-06-26T05:56:11.217Z,7.55
2023-06-26T05:58:40.712Z,7.93
2023-06-26T06:01:10.842Z,7.10
2023-06-26T06:03:39.909Z,8.02
2023-06-26T06:06:08.889Z,8.40
2023-06-26T06:08:37.681Z,9.52
2023-06-26T06:11:06.476Z,8.70
2023-06-26T06:13:35.172Z,8.05
2023-06-26T06:16:03.957Z,7.53
2023-06-26T06:18:34.174Z,7.37
2023-06-26T06:21:03.035Z,7.30
2023-06-26T06:23:31.700Z,9.10
2023-06-26T06:26:00.342Z,9.77
2023-06-26T06:28:29.067Z,10.55
2023-06-26T06:30:57.995Z,8.60
2023-06-26T06:33:26.798Z,8.48
2023-06-26T06:35:56.961Z,8.77
2023-06-26T06:38:25.753Z,8.20
2023-06-26T06:40:54.531Z,7.47
2023-06-26T06:43:23.236Z,7.43
2023-06-26T06:45:51.986Z,8.02
2023-06-26T06:48:20.907Z,9.88
2023-06-26T06:50:49.870Z,7.22
2023-06-26T06:53:21.601Z,7.20
2023-06-26T06:55:50.430Z,8.50
2023-06-26T06:58:20.314Z,7.75
2023-06-26T07:00:49.170Z,5.97
2023-06-26T07:03:18.254Z,6.93
2023-06-26T07:05:47.678Z,9.68
2023-06-26T07:08:17.142Z,7.50
2023-06-26T07:10:47.239Z,6.25
2023-06-26T07:13:16.342Z,7.55
2023-06-26T07:15:45.268Z,7.45
2023-06-26T07:18:13.981Z,7.55
2023-06-26T07:20:42.928Z,5.83
2023-06-26T07:23:12.140Z,7.50
2023-06-26T07:25:40.862Z,6.50
2023-06-26T07:28:14.924Z,7.10
2023-06-26T07:30:43.657Z,6.30
2023-06-26T07:33:12.613Z,6.30
2023-06-26T07:35:41.379Z,5.80
2023-06-26T07:38:10.110Z,6.22
2023-06-26T07:40:39.215Z,6.75
2023-06-26T07:43:08.096Z,6.53
2023-06-26T07:45:38.725Z,6.40
2023-06-26T07:48:10.380Z,8.20
2023-06-26T07:50:39.362Z,5.53
2023-06-26T07:53:08.331Z,7.70
2023-06-26T07:55:37.395Z,7.50
2023-06-26T07:58:06.488Z,7.03
2023-06-26T08:00:35.511Z,5.22
2023-06-26T08:03:09.017Z,6.45
2023-06-26T08:05:41.572Z,6.40
2023-06-26T08:08:10.482Z,5.90
2023-06-26T08:10:39.749Z,6.03
2023-06-26T08:13:10.020Z,6.35
2023-06-26T08:15:38.808Z,5.25
2023-06-26T08:18:09.035Z,6.40
2023-06-26T08:20:38.621Z,5.63
2023-06-26T08:23:08.921Z,9.00
2023-06-26T08:25:37.668Z,5.47
2023-06-26T08:28:09.562Z,5.75
2023-06-26T08:30:38.719Z,6.80
2023-06-26T08:33:13.307Z,6.57
2023-06-26T08:35:42.102Z,5.33
2023-06-26T08:38:11.175Z,9.65
2023-06-26T08:40:40.150Z,5.80
2023-06-26T08:43:09.265Z,5.72
2023-06-26T08:45:38.238Z,6.07
2023-06-26T08:48:11.795Z,5.53
2023-06-26T08:50:42.483Z,6.53
2023-06-26T08:53:21.952Z,8.13
2023-06-26T08:55:55.107Z,8.32
2023-06-26T08:58:23.879Z,6.10
2023-06-26T09:00:53.100Z,7.80
2023-06-26T09:03:23.695Z,6.32
2023-06-26T09:05:52.445Z,5.75
2023-06-26T09:08:21.526Z,5.85
2023-06-26T09:10:50.593Z,6.32
2023-06-26T09:13:29.405Z,6.03
2023-06-26T09:16:00.675Z,7.28
2023-06-26T09:18:35.110Z,6.85
2023-06-26T09:21:09.659Z,6.25
2023-06-26T09:23:39.298Z,7.28
2023-06-26T09:26:09.242Z,5.83
2023-06-26T09:28:38.603Z,5.90
2023-06-26T09:31:09.552Z,7.38
2023-06-26T09:33:42.813Z,7.40
2023-06-26T09:36:23.013Z,7.65
2023-06-26T09:38:52.507Z,6.40
2023-06-26T09:41:21.480Z,8.02
2023-06-26T09:43:51.470Z,7.75
2023-06-26T09:46:29.678Z,6.45
2023-06-26T09:49:06.575Z,6.57
2023-06-26T09:51:36.686Z,7.50
2023-06-26T09:54:07.632Z,6.47
2023-06-26T09:56:37.016Z,6.38
2023-06-26T09:59:08.340Z,6.47
2023-06-26T10:01:43.885Z,6.28
2023-06-26T10:04:15.576Z,6.17
2023-06-26T10:06:49.693Z,6.97
2023-06-26T10:09:28.293Z,6.80
2023-06-26T10:12:01.701Z,7.18
2023-06-26T10:14:36.422Z,6.68
2023-06-26T10:17:15.027Z,6.93
2023-06-26T10:19:47.866Z,6.47
2023-06-26T10:22:19.890Z,5.50
2023-06-26T10:24:52.992Z,7.13
2023-06-26T10:27:24.070Z,9.35
2023-06-26T10:29:56.929Z,5.73
2023-06-26T10:32:29.029Z,5.80
2023-06-26T10:34:59.974Z,6.57
2023-06-26T10:37:45.304Z,6.57
2023-06-26T10:40:15.399Z,6.13
2023-06-26T10:42:44.212Z,5.83
2023-06-26T10:45:16.760Z,6.32
2023-06-26T10:47:49.508Z,8.25
2023-06-26T10:50:26.475Z,6.93
2023-06-26T10:53:16.994Z,6.82
2023-06-26T10:55:50.712Z,5.53
2023-06-26T10:58:44.338Z,5.75
2023-06-26T11:01:26.508Z,5.95
2023-06-26T11:04:08.297Z,6.13
2023-06-26T11:06:41.165Z,7.57
2023-06-26T11:09:16.032Z,7.47
2023-06-26T11:12:05.861Z,9.38
2023-06-26T11:14:35.577Z,7.10
2023-06-26T11:17:08.328Z,6.93
2023-06-26T11:19:37.976Z,6.40
2023-06-26T11:22:08.644Z,8.87
2023-06-26T11:24:38.445Z,6.95
2023-06-26T11:27:07.649Z,7.43
2023-06-26T11:29:36.421Z,6.43
2023-06-26T11:32:08.616Z,11.02
2023-06-26T11:34:39.298Z,6.23
2023-06-26T11:37:14.077Z,6.18
2023-06-26T11:39:42.787Z,8.90
2023-06-26T11:42:18.764Z,7.15
2023-06-26T11:44:49.744Z,10.00
2023-06-26T11:47:19.932Z,7.83
2023-06-26T11:49:52.076Z,9.80
2023-06-26T11:52:25.236Z,9.68
2023-06-26T11:54:54.055Z,9.43
2023-06-26T11:57:23.304Z,9.30
2023-06-26T11:59:56.735Z,12.67
2023-06-26T12:02:26.180Z,6.75
2023-06-26T12:04:55.312Z,13.13
2023-06-26T12:07:26.077Z,11.65
2023-06-26T12:09:56.409Z,7.95
2023-06-26T12:12:25.899Z,8.73
2023-06-26T12:14:58.489Z,9.45
2023-06-26T12:17:27.577Z,8.38
2023-06-26T12:19:56.380Z,9.43
2023-06-26T12:22:26.864Z,9.98
2023-06-26T12:24:59.878Z,9.30
2023-06-26T12:27:29.254Z,9.95
2023-06-26T12:29:57.963Z,9.18
2023-06-26T12:32:28.071Z,9.73
2023-06-26T12:35:00.161Z,9.27
2023-06-26T12:37:30.637Z,10.03
2023-06-26T12:40:00.713Z,10.93
2023-06-26T12:42:35.206Z,10.23
2023-06-26T12:45:31.188Z,9.23
2023-06-26T12:48:10.921Z,7.50
2023-06-26T12:50:46.901Z,6.43
2023-06-26T12:53:19.930Z,7.72
2023-06-26T12:55:48.884Z,7.57
2023-06-26T12:58:18.649Z,7.97
2023-06-26T13:00:47.495Z,6.55
2023-06-26T13:03:16.232Z,7.77
2023-06-26T13:05:45.073Z,7.53
2023-06-26T13:08:14.013Z,7.55
2023-06-26T13:10:44.338Z,8.93
2023-06-26T13:13:14.698Z,8.68
2023-06-26T13:15:43.553Z,20.90
2023-06-26T13:18:12.373Z,22.20
2023-06-26T13:20:41.509Z,17.83
2023-06-26T13:23:10.810Z,14.10
2023-06-26T13:25:57.563Z,16.40
2023-06-26T13:28:29.778Z,20.77
2023-06-26T13:31:07.549Z,21.88
2023-06-26T13:33:36.553Z,19.88
2023-06-26T13:36:07.318Z,18.40
2023-06-26T13:38:41.903Z,20.75
2023-06-26T13:41:25.180Z,44.80
2023-06-26T13:43:56.222Z,34.42
2023-06-26T13:46:29.433Z,33.38
2023-06-26T13:48:58.254Z,39.22
2023-06-26T13:51:27.027Z,46.53
2023-06-26T13:54:04.867Z,35.47
2023-06-26T13:56:36.250Z,19.75
2023-06-26T13:59:05.877Z,26.30
2023-06-26T14:01:34.735Z,21.10
2023-06-26T14:04:03.567Z,16.50
2023-06-26T14:06:37.578Z,15.70
2023-06-26T14:09:08.220Z,17.95
2023-06-26T14:11:46.081Z,15.38
2023-06-26T14:14:16.505Z,9.77
2023-06-26T14:16:46.433Z,12.48
2023-06-26T14:19:16.274Z,15.77
2023-06-26T14:21:45.153Z,32.78
2023-06-26T14:24:14.616Z,35.17
2023-06-26T14:26:44.950Z,32.58
2023-06-26T14:29:14.163Z,32.88
2023-06-26T14:31:42.841Z,28.93
2023-06-26T14:34:11.735Z,26.98
2023-06-26T14:36:40.497Z,28.13
2023-06-26T14:39:09.215Z,24.65
2023-06-26T14:41:38.499Z,21.77
2023-06-26T14:44:10.944Z,26.40
2023-06-26T14:46:40.269Z,17.88
2023-06-26T14:49:08.971Z,20.90
2023-06-26T14:51:39.497Z,21.40
2023-06-26T14:54:08.424Z,27.38
2023-06-26T14:56:37.067Z,21.67
2023-06-26T14:59:05.844Z,27.08
2023-06-26T15:01:36.008Z,27.23
2023-06-26T15:04:05.239Z,30.92
2023-06-26T15:06:34.048Z,24.20
2023-06-26T15:09:03.368Z,24.07
2023-06-26T15:11:32.223Z,20.00
2023-06-26T15:14:01.143Z,20.73
2023-06-26T15:16:30.063Z,22.27
2023-06-26T15:19:00.232Z,19.17
2023-06-26T15:21:29.325Z,17.03
2023-06-26T15:23:58.876Z,17.88
2023-06-26T15:26:27.554Z,18.52
2023-06-26T15:28:56.851Z,21.70
2023-06-26T15:31:31.469Z,18.90
2023-06-26T15:34:02.433Z,18.43
2023-06-26T15:36:31.524Z,16.10
2023-06-26T15:39:00.331Z,18.10
2023-06-26T15:41:29.409Z,15.48
2023-06-26T15:43:58.537Z,14.18
2023-06-26T15:46:27.966Z,12.37
2023-06-26T15:48:56.921Z,15.27
2023-06-26T15:51:27.136Z,13.55
2023-06-26T15:53:55.984Z,12.43
2023-06-26T15:56:25.046Z,11.63
2023-06-26T15:58:53.806Z,10.80
2023-06-26T16:01:22.811Z,11.32
2023-06-26T16:03:51.612Z,8.98
2023-06-26T16:06:20.657Z,8.98
2023-06-26T16:08:53.518Z,8.65
2023-06-26T16:11:28.801Z,8.60
2023-06-26T16:14:01.187Z,7.50
2023-06-26T16:16:30.055Z,9.65
2023-06-26T16:18:59.559Z,11.00
2023-06-26T16:21:29.327Z,9.88
2023-06-26T16:24:00.442Z,7.50
2023-06-26T16:26:29.234Z,8.60
2023-06-26T16:28:59.130Z,9.75
2023-06-26T16:31:28.771Z,9.60
2023-06-26T16:33:59.686Z,11.10
2023-06-26T16:36:29.079Z,8.40
2023-06-26T16:39:02.302Z,10.05
2023-06-26T16:41:56.278Z,7.18
2023-06-26T16:44:28.264Z,9.23
2023-06-26T16:47:03.029Z,7.40
2023-06-26T16:49:32.114Z,7.57
2023-06-26T16:52:04.885Z,8.88
2023-06-26T16:54:35.206Z,10.15
2023-06-26T16:57:06.426Z,11.15
2023-06-26T16:59:35.360Z,10.75
2023-06-26T17:02:04.368Z,9.30
2023-06-26T17:04:33.492Z,9.68
2023-06-26T17:07:02.371Z,9.48
2023-06-26T17:09:34.158Z,9.77
2023-06-26T17:12:04.478Z,8.82
2023-06-26T17:14:33.235Z,9.77
2023-06-26T17:17:02.175Z,8.32
2023-06-26T17:19:32.784Z,8.75
2023-06-26T17:22:04.432Z,8.45
2023-06-26T17:24:34.223Z,9.65
2023-06-26T17:27:15.849Z,10.03
2023-06-26T17:29:46.034Z,9.40
2023-06-26T17:32:21.458Z,8.38
2023-06-26T17:34:50.933Z,9.25
2023-06-26T17:37:20.168Z,10.98
2023-06-26T17:39:50.201Z,8.20
2023-06-26T17:42:27.594Z,7.95
2023-06-26T17:45:01.497Z,8.68
2023-06-26T17:47:32.814Z,8.88
2023-06-26T17:50:01.741Z,11.40
2023-06-26T17:52:34.128Z,9.07
2023-06-26T17:55:04.953Z,7.03
2023-06-26T17:57:35.643Z,7.30
2023-06-26T18:00:05.823Z,7.35
2023-06-26T18:02:43.828Z,7.97
2023-06-26T18:05:15.788Z,8.53
2023-06-26T18:07:58.116Z,9.35
2023-06-26T18:10:31.674Z,7.75
2023-06-26T18:13:04.435Z,9.70
2023-06-26T18:15:33.343Z,8.88
2023-06-26T18:18:02.085Z,9.30
2023-06-26T18:20:30.895Z,9.45
2023-06-26T18:22:59.947Z,9.00
2023-06-26T18:25:28.987Z,7.78
2023-06-26T18:27:57.728Z,9.32
2023-06-26T18:30:27.901Z,10.73
2023-06-26T18:32:57.002Z,10.02
2023-06-26T18:35:26.046Z,8.57
2023-06-26T18:37:54.950Z,7.80
2023-06-26T18:40:26.104Z,11.25
2023-06-26T18:42:54.992Z,9.57
2023-06-26T18:45:24.489Z,10.10
2023-06-26T18:47:54.799Z,9.25
2023-06-26T18:50:28.393Z,10.60
2023-06-26T18:53:08.748Z,9.05
2023-06-26T18:55:38.752Z,8.57
2023-06-26T18:58:07.943Z,11.45
2023-06-26T19:00:36.721Z,8.82
2023-06-26T19:03:06.949Z,10.00
2023-06-26T19:05:35.736Z,8.95
2023-06-26T19:08:04.930Z,11.63
2023-06-26T19:10:36.139Z,9.68
2023-06-26T19:13:05.540Z,12.68
2023-06-26T19:15:34.829Z,12.20
2023-06-26T19:18:03.654Z,9.73
2023-06-26T19:20:33.928Z,11.20
2023-06-26T19:23:02.830Z,12.07
2023-06-26T19:25:31.544Z,11.05
2023-06-26T19:28:00.445Z,9.30
2023-06-26T19:30:30.235Z,12.38
2023-06-26T19:32:59.964Z,9.67
2023-06-26T19:35:29.873Z,10.85
2023-06-26T19:38:04.933Z,10.93
2023-06-26T19:40:36.228Z,11.43
2023-06-26T19:43:08.819Z,11.75
2023-06-26T19:45:37.965Z,15.77
2023-06-26T19:48:07.783Z,10.82
2023-06-26T19:50:36.589Z,9.98
2023-06-26T19:53:07.793Z,16.83
2023-06-26T19:55:36.754Z,14.73
2023-06-26T19:58:05.420Z,12.50
2023-06-26T20:00:35.567Z,15.88
2023-06-26T20:03:05.239Z,13.60
2023-06-26T20:05:34.232Z,12.40
2023-06-26T20:08:03.285Z,13.35
2023-06-26T20:10:34.021Z,15.00
2023-06-26T20:13:03.545Z,13.52
2023-06-26T20:15:32.257Z,14.07
2023-06-26T20:18:01.337Z,14.02
2023-06-26T20:20:31.478Z,15.77
2023-06-26T20:23:02.582Z,10.83
2023-06-26T20:25:31.664Z,13.25
2023-06-26T20:28:01.809Z,13.98
2023-06-26T20:30:30.554Z,13.52
2023-06-26T20:32:59.402Z,23.45
2023-06-26T20:35:29.284Z,18.23
2023-06-26T20:37:58.300Z,13.65
2023-06-26T20:40:27.861Z,15.90
2023-06-26T20:42:57.392Z,32.17
2023-06-26T20:45:29.120Z,14.82
2023-06-26T20:47:58.801Z,12.73
2023-06-26T20:50:58.601Z,19.10
2023-06-26T20:53:29.846Z,17.65
2023-06-26T20:55:59.526Z,11.30
2023-06-26T20:58:28.586Z,11.57
2023-06-26T21:00:58.680Z,11.47
2023-06-26T21:03:27.693Z,14.93
2023-06-26T21:05:56.539Z,12.43
2023-06-26T21:08:25.292Z,14.68
2023-06-26T21:10:54.138Z,13.77
2023-06-26T21:13:22.924Z,11.13
2023-06-26T21:15:51.650Z,11.32
2023-06-26T21:18:21.704Z,16.15
2023-06-26T21:20:50.459Z,13.82
2023-06-26T21:23:19.334Z,14.75
2023-06-26T21:25:48.119Z,13.77
2023-06-26T21:28:16.948Z,9.00
2023-06-26T21:30:45.869Z,12.32
2023-06-26T21:33:16.797Z,11.25
2023-06-26T21:35:48.608Z,16.25
2023-06-26T21:38:17.746Z,9.17
2023-06-26T21:40:46.399Z,10.48
2023-06-26T21:43:15.154Z,11.40
2023-06-26T21:45:43.928Z,11.40
2023-06-26T21:48:13.740Z,10.15
2023-06-26T21:50:42.463Z,11.80
2023-06-26T21:53:12.614Z,14.13
2023-06-26T21:55:41.941Z,12.32
2023-06-26T21:58:11.090Z,10.52
2023-06-26T22:00:39.769Z,9.73
2023-06-26T22:03:11.190Z,9.27
2023-06-26T22:05:42.822Z,10.57
2023-06-26T22:08:18.112Z,10.30
2023-06-26T22:10:46.991Z,16.23
2023-06-26T22:13:15.748Z,13.75
2023-06-26T22:15:44.634Z,15.27
2023-06-26T22:18:14.484Z,9.05
2023-06-26T22:20:44.409Z,9.82
2023-06-26T22:23:13.237Z,10.63
2023-06-26T22:25:43.432Z,13.82
2023-06-26T22:28:12.149Z,10.23
2023-06-26T22:30:40.893Z,13.30
2023-06-26T22:33:11.659Z,12.85
2023-06-26T22:35:41.949Z,11.77
2023-06-26T22:38:12.022Z,11.27
2023-06-26T22:40:43.722Z,13.33
2023-06-26T22:43:12.406Z,11.82
2023-06-26T22:45:41.622Z,11.45
2023-06-26T22:48:12.953Z,11.60
2023-06-26T22:50:42.716Z,10.13
2023-06-26T22:53:11.415Z,12.30
2023-06-26T22:55:40.877Z,9.60
2023-06-26T22:58:12.739Z,10.13
2023-06-26T23:00:41.885Z,11.00
2023-06-26T23:03:11.219Z,11.00
2023-06-26T23:05:40.214Z,9.67
2023-06-26T23:08:09.314Z,9.00
2023-06-26T23:10:38.476Z,10.85
2023-06-26T23:13:07.328Z,10.18
2023-06-26T23:15:40.666Z,12.00
2023-06-26T23:18:09.917Z,9.03
2023-06-26T23:20:38.690Z,10.63
2023-06-26T23:23:07.412Z,10.63
2023-06-26T23:25:36.117Z,10.70
2023-06-26T23:28:05.998Z,10.75
2023-06-26T23:30:35.951Z,10.23
2023-06-26T23:33:07.106Z,10.73
2023-06-26T23:35:44.095Z,10.20
2023-06-26T23:38:13.479Z,10.52
2023-06-26T23:40:42.237Z,11.70
2023-06-26T23:43:13.061Z,10.90
2023-06-26T23:45:46.290Z,10.57
2023-06-26T23:48:16.486Z,10.10
2023-06-26T23:50:45.270Z,10.95
2023-06-26T23:53:14.495Z,10.45
2023-06-26T23:55:43.185Z,10.30
2023-06-26T23:58:14.050Z,10.50
